Time;durP1;ratioP1;P1;durP2;ratioP2;P2;SDS_P1;SDS_P2;PMS_P1;PMS_P2;Temp;Humidity;BMP_temperature;BMP_pressure;BME280_temperature;BME280_humidity;BME280_pressure;Samples;Min_cycle;Max_cycle;Signal;HPM_P1;HPM_P2
2022/01/14 00:00:08;;;;;;;1.75;0.50;;;20.20;48.80;;;;;;5080245;28;20031;-49
2022/01/14 00:02:34;;;;;;;0.40;0.40;;;20.10;48.80;;;;;;5100243;28;20100;-50
2022/01/14 00:05:01;;;;;;;0.60;0.40;;;20.10;48.80;;;;;;5100172;28;20111;-46
2022/01/14 00:07:27;;;;;;;0.80;0.50;;;20.10;48.70;;;;;;5102468;28;20032;-50
2022/01/14 00:09:54;;;;;;;0.77;0.40;;;20.10;48.80;;;;;;5102124;28;20471;-49
2022/01/14 00:12:26;;;;;;;0.63;0.38;;;20.10;48.70;;;;;;5104303;28;20040;-50
2022/01/14 00:15:23;;;;;;;0.50;0.40;;;20.10;48.70;;;;;;5103769;28;20032;-51
2022/01/14 00:17:38;;;;;;;1.77;0.40;;;20.00;48.70;;;;;;5101604;28;20066;-50
2022/01/14 00:20:05;;;;;;;0.40;0.40;;;20.00;48.60;;;;;;5085232;28;20024;-50
2022/01/14 00:22:31;;;;;;;0.57;0.50;;;20.00;48.60;;;;;;5103580;28;20035;-51
2022/01/14 00:33:16;;;;;;;0.40;0.32;;;19.90;48.50;;;;;;5102489;28;20056;-46
2022/01/14 00:35:42;;;;;;;1.15;0.47;;;19.90;48.60;;;;;;5102274;28;20126;-48
2022/01/14 00:38:12;;;;;;;0.50;0.38;;;19.90;48.50;;;;;;5103190;28;20496;-47
2022/01/14 00:40:38;;;;;;;0.70;0.40;;;19.90;48.50;;;;;;5065582;28;20056;-49
2022/01/14 00:43:04;;;;;;;0.85;0.40;;;19.80;48.50;;;;;;5086021;28;20392;-48
2022/01/14 00:45:30;;;;;;;2.28;0.70;;;19.80;48.50;;;;;;5102779;28;20040;-51
2022/01/14 00:47:56;;;;;;;1.10;0.40;;;19.80;48.50;;;;;;5103412;28;20504;-49
2022/01/14 00:50:23;;;;;;;0.60;0.40;;;19.80;48.50;;;;;;5102416;28;20028;-48
2022/01/14 00:52:49;;;;;;;0.50;0.40;;;19.90;48.60;;;;;;5102953;28;20047;-47
2022/01/14 00:55:17;;;;;;;0.38;0.30;;;19.90;48.50;;;;;;5103261;28;20046;-48
2022/01/14 01:00:21;;;;;;;0.82;0.50;;;19.90;48.60;;;;;;5092011;28;20096;-48
2022/01/14 01:02:48;;;;;;;0.55;0.38;;;19.90;48.60;;;;;;5099917;28;20560;-50
2022/01/14 01:05:14;;;;;;;1.00;0.47;;;19.80;48.50;;;;;;5103017;28;20043;-51
2022/01/14 01:07:45;;;;;;;0.32;0.32;;;19.80;48.60;;;;;;5099206;28;20040;-50
2022/01/14 01:10:12;;;;;;;1.30;0.40;;;19.80;48.60;;;;;;5104956;28;20016;-47
2022/01/14 01:15:34;;;;;;;0.60;0.30;;;19.70;48.50;;;;;;5096721;28;20132;-51
2022/01/14 01:18:00;;;;;;;0.30;0.28;;;19.80;48.60;;;;;;5108468;28;20043;-51
2022/01/14 01:20:26;;;;;;;0.40;0.30;;;19.90;48.70;;;;;;5093854;28;20031;-51
2022/01/14 01:22:53;;;;;;;0.50;0.40;;;19.90;48.60;;;;;;5119145;28;20024;-47
2022/01/14 01:25:23;;;;;;;0.55;0.50;;;19.80;48.50;;;;;;5092457;28;20016;-53
2022/01/14 01:27:50;;;;;;;0.60;0.32;;;19.80;48.60;;;;;;5089667;28;20046;-51
2022/01/14 01:30:38;;;;;;;1.02;0.60;;;19.90;48.70;;;;;;5101655;28;20062;-51
2022/01/14 01:33:04;;;;;;;0.70;0.40;;;19.90;48.90;;;;;;5100924;28;20042;-47
2022/01/14 01:35:31;;;;;;;0.45;0.30;;;19.90;48.80;;;;;;5109874;28;20036;-47
2022/01/14 01:37:57;;;;;;;0.65;0.32;;;19.90;48.70;;;;;;5101952;28;20043;-49
2022/01/14 01:40:27;;;;;;;0.60;0.50;;;19.90;48.70;;;;;;5084410;28;20043;-48
2022/01/14 01:42:55;;;;;;;0.70;0.30;;;19.90;48.70;;;;;;5088064;28;20030;-50
2022/01/14 01:45:24;;;;;;;0.38;0.38;;;19.90;48.70;;;;;;5111855;28;20055;-49
2022/01/14 01:47:50;;;;;;;0.50;0.40;;;19.90;48.80;;;;;;5105924;28;20065;-48
2022/01/14 01:50:22;;;;;;;0.20;0.10;;;19.90;48.90;;;;;;5105227;28;20151;-50
2022/01/14 01:52:48;;;;;;;0.47;0.30;;;20.00;48.80;;;;;;5101974;28;20092;-53
2022/01/14 01:55:14;;;;;;;0.68;0.40;;;20.00;48.80;;;;;;5109289;28;20021;-47
2022/01/14 01:57:44;;;;;;;0.30;0.30;;;19.90;48.70;;;;;;5099191;28;20035;-52
2022/01/14 02:00:12;;;;;;;0.30;0.30;;;19.90;48.70;;;;;;5096391;28;20028;-48
2022/01/14 02:02:37;;;;;;;;;;;19.90;48.70;;;;;;5102631;28;20054;-48
2022/01/14 02:05:04;;;;;;;0.40;0.30;;;19.90;48.80;;;;;;5102204;28;19907;-50
2022/01/14 02:07:33;;;;;;;0.68;0.32;;;20.00;48.90;;;;;;5098177;28;20046;-47
2022/01/14 02:10:00;;;;;;;0.97;0.40;;;20.00;49.00;;;;;;5029939;28;2019409;-49
2022/01/14 02:12:35;;;;;;;0.60;0.40;;;20.00;48.80;;;;;;5101145;28;20028;-52
2022/01/14 02:17:47;;;;;;;0.38;0.30;;;20.00;48.60;;;;;;5100489;28;20031;-48
2022/01/14 02:23:04;;;;;;;0.40;0.32;;;19.90;48.60;;;;;;5099428;28;20092;-48
2022/01/14 02:25:30;;;;;;;0.70;0.45;;;20.00;48.90;;;;;;5099333;28;20028;-48
2022/01/14 02:28:01;;;;;;;0.82;0.50;;;20.00;48.90;;;;;;5101117;28;20110;-50
2022/01/14 02:30:29;;;;;;;0.88;0.38;;;20.00;48.80;;;;;;5097514;28;20020;-48
2022/01/14 02:32:55;;;;;;;0.82;0.40;;;20.00;48.70;;;;;;5099441;28;20032;-48
2022/01/14 02:35:21;;;;;;;0.50;0.40;;;20.00;48.70;;;;;;5100208;28;21358;-53
2022/01/14 02:37:47;;;;;;;1.98;0.50;;;20.00;48.80;;;;;;5100521;28;20089;-48
2022/01/14 02:40:13;;;;;;;0.95;0.40;;;20.00;48.70;;;;;;5098649;28;20103;-50
2022/01/14 02:42:40;;;;;;;0.77;0.47;;;19.90;48.70;;;;;;5101261;28;20156;-49
2022/01/14 02:45:10;;;;;;;0.68;0.50;;;20.00;49.00;;;;;;5098888;28;20783;-47
2022/01/14 02:47:36;;;;;;;1.25;0.60;;;20.10;49.10;;;;;;5099230;28;20042;-53
2022/01/14 02:50:08;;;;;;;0.50;0.50;;;20.10;48.90;;;;;;5097146;28;20028;-49
2022/01/14 02:53:14;;;;;;;0.60;0.50;;;20.10;48.90;;;;;;5098196;28;20044;-48
2022/01/14 02:55:32;;;;;;;0.63;0.47;;;20.00;48.80;;;;;;5095325;28;20038;-49
2022/01/14 02:57:58;;;;;;;0.82;0.50;;;20.00;48.80;;;;;;5098589;28;20036;-49
2022/01/14 03:00:28;;;;;;;0.63;0.50;;;20.00;48.70;;;;;;5092320;28;20036;-49
2022/01/14 03:02:55;;;;;;;0.60;0.40;;;20.00;48.80;;;;;;5100546;28;20596;-50
2022/01/14 03:05:21;;;;;;;0.50;0.50;;;20.00;49.00;;;;;;5081907;28;20552;-50
2022/01/14 03:07:48;;;;;;;0.60;0.50;;;20.10;49.10;;;;;;5092398;28;20048;-49
2022/01/14 03:10:15;;;;;;;0.82;0.70;;;20.10;48.90;;;;;;5079539;28;20043;-47
2022/01/14 03:12:41;;;;;;;;;;;20.10;48.90;;;;;;5097028;28;20042;-49
2022/01/14 03:15:08;;;;;;;0.50;0.40;;;20.00;48.80;;;;;;5098276;28;19943;-50
2022/01/14 03:17:34;;;;;;;1.00;0.60;;;20.00;48.80;;;;;;5100176;28;20028;-50
2022/01/14 03:20:01;;;;;;;0.68;0.60;;;20.00;48.80;;;;;;5100236;28;20039;-49
2022/01/14 03:22:32;;;;;;;;;;;20.00;48.80;;;;;;5080528;28;20071;-47
2022/01/14 03:27:43;;;;;;;0.70;0.60;;;20.10;49.10;;;;;;5092688;28;20154;-50
2022/01/14 03:30:10;;;;;;;0.70;0.30;;;20.10;49.00;;;;;;5076671;28;20039;-50
2022/01/14 03:32:36;;;;;;;0.80;0.60;;;20.10;49.00;;;;;;5098086;28;20024;-47
2022/01/14 03:35:02;;;;;;;0.77;0.60;;;20.00;48.90;;;;;;5095624;28;20679;-48
2022/01/14 03:37:28;;;;;;;0.60;0.57;;;20.00;48.90;;;;;;5099363;28;20100;-47
2022/01/14 03:39:54;;;;;;;0.90;0.60;;;20.00;48.90;;;;;;5100599;28;20059;-48
2022/01/14 03:42:20;;;;;;;0.50;0.50;;;20.00;49.00;;;;;;5094016;28;20036;-47
2022/01/14 03:44:47;;;;;;;0.98;0.60;;;20.00;49.10;;;;;;5099672;28;20053;-50
2022/01/14 03:47:13;;;;;;;0.80;0.55;;;20.10;49.20;;;;;;5099062;28;20039;-50
2022/01/14 03:49:39;;;;;;;1.63;0.90;;;20.10;49.10;;;;;;5081712;28;20035;-48
2022/01/14 03:52:05;;;;;;;0.65;0.40;;;20.10;49.00;;;;;;5090688;28;20036;-48
2022/01/14 03:54:31;;;;;;;1.00;0.57;;;20.00;48.90;;;;;;5099415;28;20024;-50
2022/01/14 03:56:57;;;;;;;0.65;0.40;;;20.00;49.00;;;;;;5090073;28;20028;-48
2022/01/14 03:59:24;;;;;;;0.82;0.60;;;20.00;49.00;;;;;;5099637;28;20091;-50
2022/01/14 04:01:50;;;;;;;0.57;0.45;;;20.00;49.10;;;;;;5099003;28;20703;-47
2022/01/14 04:04:16;;;;;;;2.45;0.60;;;20.10;49.30;;;;;;5100099;28;20032;-49
2022/01/14 04:06:42;;;;;;;0.68;0.60;;;20.10;49.20;;;;;;5088135;28;20044;-48
2022/01/14 04:09:08;;;;;;;0.63;0.60;;;20.10;49.10;;;;;;5092052;28;20032;-47
2022/01/14 04:11:34;;;;;;;2.15;0.55;;;20.00;49.00;;;;;;5100157;28;20055;-48
2022/01/14 04:15:36;;;;;;;1.13;0.47;;;20.00;49.00;;;;;;5080126;28;20041;-47
2022/01/14 04:16:53;;;;;;;1.13;0.60;;;20.00;49.00;;;;;;5091734;28;20039;-51
2022/01/14 04:19:19;;;;;;;0.80;0.67;;;19.90;49.10;;;;;;5102299;28;20032;-46
2022/01/14 04:21:45;;;;;;;1.00;0.50;;;20.00;49.20;;;;;;5102351;28;20020;-51
2022/01/14 04:24:11;;;;;;;0.95;0.55;;;20.10;49.40;;;;;;5101751;28;20039;-46
2022/01/14 04:26:38;;;;;;;1.15;0.40;;;20.10;49.20;;;;;;5084229;28;20032;-47
2022/01/14 04:29:04;;;;;;;0.80;0.60;;;20.10;49.20;;;;;;5100258;28;20874;-47
2022/01/14 04:31:30;;;;;;;1.13;0.60;;;20.00;49.10;;;;;;5096628;28;20096;-47
2022/01/14 04:33:56;;;;;;;1.08;0.57;;;20.00;49.10;;;;;;5086796;28;20041;-48
2022/01/14 04:36:22;;;;;;;1.17;0.82;;;19.90;49.00;;;;;;5106297;28;20697;-50
2022/01/14 04:38:48;;;;;;;1.23;0.60;;;20.00;49.20;;;;;;5094100;28;20032;-47
2022/01/14 04:41:14;;;;;;;0.60;0.40;;;20.00;49.30;;;;;;5091171;28;20028;-48
2022/01/14 04:43:40;;;;;;;1.75;0.50;;;20.10;49.30;;;;;;5106182;28;20106;-49
2022/01/14 04:48:35;;;;;;;1.35;0.50;;;20.00;49.20;;;;;;5101867;28;20035;-46
2022/01/14 04:51:05;;;;;;;1.35;0.50;;;20.00;49.20;;;;;;5101438;28;20042;-47
2022/01/14 04:53:31;;;;;;;0.63;0.40;;;19.90;49.20;;;;;;5104477;28;20032;-49
2022/01/14 04:55:57;;;;;;;0.70;0.55;;;19.90;49.20;;;;;;5104928;28;20029;-48
2022/01/14 04:58:27;;;;;;;0.70;0.60;;;20.00;49.40;;;;;;5106010;28;20095;-51
2022/01/14 05:00:54;;;;;;;0.52;0.40;;;20.00;49.40;;;;;;5096330;28;20047;-47
2022/01/14 05:03:20;;;;;;;0.68;0.55;;;20.00;49.30;;;;;;5105451;28;20092;-49
2022/01/14 05:05:52;;;;;;;0.45;0.43;;;20.00;49.30;;;;;;5104579;28;20039;-49
2022/01/14 05:08:23;;;;;;;0.80;0.35;;;20.00;49.30;;;;;;5104161;28;20040;-47
2022/01/14 05:13:23;;;;;;;1.25;0.55;;;19.90;49.30;;;;;;5105500;28;20053;-47
2022/01/14 05:15:49;;;;;;;1.20;0.63;;;20.00;49.40;;;;;;5104872;28;20038;-47
2022/01/14 05:18:15;;;;;;;1.00;0.50;;;20.00;49.50;;;;;;5105082;28;20055;-48
2022/01/14 05:20:41;;;;;;;1.02;0.55;;;20.00;49.40;;;;;;5103816;28;20051;-47
2022/01/14 05:23:07;;;;;;;0.50;0.50;;;20.00;49.30;;;;;;5105826;28;20039;-49
2022/01/14 05:25:33;;;;;;;0.88;0.57;;;19.90;49.30;;;;;;5103411;28;20032;-48
2022/01/14 05:27:59;;;;;;;0.52;0.40;;;19.90;49.30;;;;;;5105054;28;20032;-50
2022/01/14 05:30:26;;;;;;;1.08;0.50;;;19.90;49.30;;;;;;5102094;28;20138;-46
2022/01/14 05:32:53;;;;;;;1.38;0.50;;;20.00;49.50;;;;;;5105463;28;20035;-49
2022/01/14 05:35:21;;;;;;;0.43;0.40;;;20.00;49.40;;;;;;5085977;28;20016;-47
2022/01/14 05:37:48;;;;;;;0.77;0.45;;;20.00;49.40;;;;;;5103503;28;20023;-50
2022/01/14 05:40:14;;;;;;;0.55;0.50;;;20.00;49.40;;;;;;5104830;28;20066;-47
2022/01/14 05:42:41;;;;;;;0.47;0.40;;;19.90;49.30;;;;;;5096570;28;20030;-48
2022/01/14 05:45:08;;;;;;;0.90;0.60;;;19.90;49.40;;;;;;5103092;28;20051;-48
2022/01/14 05:47:35;;;;;;;0.57;0.40;;;19.90;49.40;;;;;;5105134;28;20401;-47
2022/01/14 05:50:02;;;;;;;0.75;0.55;;;20.00;49.60;;;;;;5104752;28;20054;-49
2022/01/14 05:52:28;;;;;;;0.63;0.50;;;20.00;49.40;;;;;;5104966;28;20032;-48
2022/01/14 05:54:55;;;;;;;0.65;0.43;;;20.00;49.40;;;;;;5101145;28;20036;-48
2022/01/14 05:57:21;;;;;;;0.75;0.40;;;19.90;49.40;;;;;;5098230;28;20126;-49
2022/01/14 05:59:48;;;;;;;0.80;0.40;;;19.90;49.40;;;;;;5090416;28;20040;-50
2022/01/14 06:02:14;;;;;;;0.57;0.43;;;19.90;49.50;;;;;;5106252;28;20039;-48
2022/01/14 06:04:42;;;;;;;0.40;0.40;;;20.00;49.60;;;;;;5116108;28;20024;-47
2022/01/14 06:07:10;;;;;;;0.43;0.40;;;20.00;49.60;;;;;;5102197;28;20383;-48
2022/01/14 06:09:36;;;;;;;0.77;0.50;;;20.00;49.50;;;;;;5097817;28;20024;-47
2022/01/14 06:12:03;;;;;;;0.65;0.50;;;20.00;49.40;;;;;;5102645;28;20063;-49
2022/01/14 06:14:29;;;;;;;0.60;0.50;;;19.90;49.30;;;;;;5098031;28;20039;-49
2022/01/14 06:16:55;;;;;;;1.10;0.60;;;19.90;49.40;;;;;;5102960;28;20040;-47
2022/01/14 06:19:23;;;;;;;0.95;0.60;;;19.90;49.40;;;;;;5103240;28;20068;-48
2022/01/14 06:21:50;;;;;;;1.08;0.60;;;19.90;49.50;;;;;;5104110;28;20028;-46
2022/01/14 06:24:16;;;;;;;0.50;0.50;;;20.00;49.50;;;;;;5102102;28;20030;-47
2022/01/14 06:26:43;;;;;;;0.50;0.40;;;20.00;49.30;;;;;;5103913;28;20130;-48
2022/01/14 06:29:09;;;;;;;1.50;0.60;;;20.00;49.40;;;;;;5096263;28;20035;-48
2022/01/14 06:31:35;;;;;;;1.40;0.60;;;19.90;49.30;;;;;;5103625;28;20096;-50
2022/01/14 06:34:01;;;;;;;1.30;0.60;;;19.90;49.90;;;;;;5103352;28;20449;-50
2022/01/14 06:36:27;;;;;;;1.17;0.77;;;19.90;49.30;;;;;;5104210;28;20024;-48
2022/01/14 06:38:53;;;;;;;0.57;0.50;;;20.00;49.40;;;;;;5105144;28;20032;-48
2022/01/14 06:41:19;;;;;;;1.88;0.55;;;20.00;49.30;;;;;;5104432;28;20430;-49
2022/01/14 06:43:45;;;;;;;1.13;0.60;;;20.00;49.30;;;;;;5099590;28;20028;-48
2022/01/14 06:46:11;;;;;;;0.82;0.50;;;19.90;49.30;;;;;;5103297;28;20028;-47
2022/01/14 06:48:37;;;;;;;0.50;0.32;;;19.90;49.30;;;;;;5103003;28;20027;-51
2022/01/14 06:51:04;;;;;;;0.93;0.60;;;19.90;49.30;;;;;;5097014;28;20031;-46
2022/01/14 06:53:30;;;;;;;0.70;0.40;;;19.80;49.40;;;;;;5103895;28;20052;-46
2022/01/14 06:55:56;;;;;;;1.67;0.70;;;19.90;49.40;;;;;;5103032;28;20034;-46
2022/01/14 06:58:22;;;;;;;0.73;0.60;;;19.90;49.50;;;;;;5103634;28;20088;-47
2022/01/14 07:00:48;;;;;;;0.85;0.40;;;20.00;49.40;;;;;;5082963;28;20032;-50
2022/01/14 07:03:14;;;;;;;0.88;0.50;;;20.00;49.40;;;;;;5103409;28;20039;-46
2022/01/14 07:05:40;;;;;;;0.47;0.40;;;19.90;49.90;;;;;;5103417;28;20244;-47
2022/01/14 07:08:06;;;;;;;1.15;0.50;;;19.80;49.30;;;;;;5102388;28;20027;-47
2022/01/14 07:10:36;;;;;;;0.70;0.60;;;19.80;49.40;;;;;;5103325;28;20036;-49
2022/01/14 07:13:03;;;;;;;0.60;0.50;;;19.90;49.50;;;;;;5103235;28;20020;-49
2022/01/14 07:15:29;;;;;;;0.43;0.40;;;20.00;49.60;;;;;;5102267;28;20035;-48
2022/01/14 07:17:56;;;;;;;1.65;0.40;;;20.00;49.40;;;;;;5102962;28;20036;-47
2022/01/14 07:20:22;;;;;;;0.65;0.47;;;19.90;49.40;;;;;;5103013;28;20440;-49
2022/01/14 07:22:48;;;;;;;0.70;0.50;;;19.90;49.40;;;;;;5095568;28;20037;-48
2022/01/14 07:25:14;;;;;;;0.73;0.60;;;19.80;49.40;;;;;;5084745;28;20031;-47
2022/01/14 07:27:41;;;;;;;0.40;0.40;;;19.90;49.50;;;;;;5107473;28;20090;-47
2022/01/14 07:30:08;;;;;;;1.30;0.50;;;19.90;49.50;;;;;;5102344;28;20050;-48
2022/01/14 07:32:34;;;;;;;1.00;0.50;;;19.90;49.60;;;;;;5102620;28;20034;-48
2022/01/14 07:35:02;;;;;;;0.47;0.30;;;20.00;49.50;;;;;;5101578;28;20036;-47
2022/01/14 07:37:28;;;;;;;0.50;0.47;;;19.90;49.40;;;;;;5083367;28;20088;-46
2022/01/14 07:39:54;;;;;;;0.60;0.55;;;19.90;49.40;;;;;;5099956;28;20121;-47
2022/01/14 07:42:20;;;;;;;0.45;0.40;;;19.90;49.40;;;;;;5102843;28;20024;-50
2022/01/14 07:44:46;;;;;;;0.75;0.52;;;19.80;49.40;;;;;;5102985;28;20384;-47
2022/01/14 07:47:13;;;;;;;0.50;0.40;;;19.90;49.50;;;;;;5092958;28;20035;-47
2022/01/14 07:49:39;;;;;;;0.50;0.40;;;19.90;49.70;;;;;;5101225;28;21233;-47
2022/01/14 07:52:05;;;;;;;0.70;0.40;;;20.00;49.50;;;;;;5101001;28;20044;-46
2022/01/14 07:54:31;;;;;;;0.50;0.47;;;19.90;49.40;;;;;;5102948;28;20029;-52
2022/01/14 07:56:59;;;;;;;0.65;0.47;;;19.90;49.40;;;;;;5093778;28;20039;-48
2022/01/14 07:59:25;;;;;;;;;;;19.80;49.40;;;;;;5101271;28;20087;-49
2022/01/14 08:01:54;;;;;;;2.17;0.45;;;19.90;49.50;;;;;;5084358;28;19912;-48
2022/01/14 08:04:21;;;;;;;0.47;0.43;;;19.90;49.60;;;;;;5094821;28;20032;-48
2022/01/14 08:06:50;;;;;;;0.50;0.40;;;19.90;49.60;;;;;;5094942;28;20052;-48
2022/01/14 08:09:17;;;;;;;1.05;0.60;;;20.00;49.60;;;;;;5097025;28;20036;-48
2022/01/14 08:11:43;;;;;;;0.67;0.50;;;19.90;49.50;;;;;;5101657;28;20687;-47
2022/01/14 08:14:10;;;;;;;0.65;0.40;;;19.90;49.40;;;;;;5095473;28;20051;-46
2022/01/14 08:16:36;;;;;;;0.60;0.50;;;19.80;49.50;;;;;;5098584;28;20040;-50
2022/01/14 08:19:02;;;;;;;0.55;0.40;;;19.80;49.50;;;;;;5098255;28;20024;-50
2022/01/14 08:21:28;;;;;;;0.32;0.30;;;19.90;49.60;;;;;;5096356;28;20039;-51
2022/01/14 08:23:54;;;;;;;1.00;0.40;;;20.00;49.80;;;;;;5102293;28;20093;-47
2022/01/14 08:26:20;;;;;;;0.75;0.40;;;20.00;49.60;;;;;;5101974;28;20031;-50
2022/01/14 08:28:46;;;;;;;0.40;0.20;;;19.90;49.60;;;;;;5098920;28;20024;-48
2022/01/14 08:31:14;;;;;;;0.47;0.30;;;19.90;49.50;;;;;;5098217;28;20073;-50
2022/01/14 08:33:42;;;;;;;0.57;0.40;;;19.80;49.50;;;;;;5086407;28;20061;-51
2022/01/14 08:36:09;;;;;;;0.73;0.50;;;19.80;49.60;;;;;;5106481;28;20039;-49
2022/01/14 08:38:37;;;;;;;0.52;0.40;;;19.90;49.70;;;;;;5088558;28;20027;-50
2022/01/14 08:41:03;;;;;;;0.40;0.40;;;20.00;49.80;;;;;;5106303;28;20073;-48
2022/01/14 08:43:29;;;;;;;0.45;0.40;;;20.00;49.60;;;;;;5101276;28;20039;-49
2022/01/14 08:45:58;;;;;;;0.77;0.38;;;19.90;49.60;;;;;;5105133;28;20024;-47
2022/01/14 08:48:25;;;;;;;0.88;0.50;;;19.90;49.60;;;;;;5082292;28;20043;-48
2022/01/14 08:50:52;;;;;;;0.40;0.30;;;19.80;49.60;;;;;;5106766;28;20032;-48
2022/01/14 08:53:18;;;;;;;0.40;0.30;;;19.90;49.70;;;;;;5106148;28;20040;-49
2022/01/14 08:55:44;;;;;;;0.40;0.40;;;19.90;49.70;;;;;;5106170;28;20020;-48
2022/01/14 08:58:10;;;;;;;0.40;0.30;;;20.00;49.70;;;;;;5105552;28;20370;-47
2022/01/14 09:00:37;;;;;;;1.17;0.50;;;20.00;49.60;;;;;;5103850;28;20032;-48
2022/01/14 09:03:03;;;;;;;0.30;0.27;;;20.00;49.60;;;;;;5104875;28;20055;-50
2022/01/14 09:05:29;;;;;;;0.40;0.40;;;19.90;49.60;;;;;;5100159;28;20059;-48
2022/01/14 09:07:56;;;;;;;0.30;0.30;;;19.80;49.60;;;;;;5085138;28;20028;-50
2022/01/14 09:10:22;;;;;;;0.70;0.40;;;19.80;49.70;;;;;;5104767;28;20036;-46
2022/01/14 09:12:48;;;;;;;0.47;0.30;;;19.90;49.70;;;;;;5087809;28;20035;-48
2022/01/14 09:15:14;;;;;;;0.38;0.30;;;20.00;49.80;;;;;;5099698;28;20050;-47
2022/01/14 09:17:41;;;;;;;0.30;0.30;;;20.00;49.70;;;;;;5086468;28;20035;-49
2022/01/14 09:20:08;;;;;;;0.60;0.40;;;19.90;49.60;;;;;;5101476;28;20063;-46
2022/01/14 09:22:35;;;;;;;0.40;0.30;;;19.90;49.60;;;;;;5093293;28;20056;-48
2022/01/14 09:25:02;;;;;;;;;;;19.80;49.60;;;;;;5101759;28;20115;-48
2022/01/14 09:27:29;;;;;;;0.30;0.30;;;19.90;49.70;;;;;;5102173;28;19920;-48
2022/01/14 09:29:55;;;;;;;;;;;19.90;49.70;;;;;;5104443;28;20028;-47
2022/01/14 09:32:22;;;;;;;0.50;0.40;;;20.00;49.80;;;;;;5105004;28;19953;-47
2022/01/14 09:34:48;;;;;;;0.22;0.22;;;20.00;49.70;;;;;;5105243;28;20073;-48
2022/01/14 09:37:14;;;;;;;0.73;0.40;;;20.00;49.70;;;;;;5103837;28;20032;-49
2022/01/14 09:39:43;;;;;;;0.50;0.28;;;19.90;49.60;;;;;;5109457;28;20057;-50
2022/01/14 09:42:10;;;;;;;0.85;0.47;;;19.90;49.70;;;;;;5104804;28;20040;-47
2022/01/14 09:44:36;;;;;;;0.88;0.50;;;19.90;49.60;;;;;;5102262;28;20032;-48
2022/01/14 09:47:03;;;;;;;0.20;0.20;;;19.90;49.70;;;;;;5102955;28;20032;-47
2022/01/14 09:49:29;;;;;;;0.45;0.40;;;20.00;49.60;;;;;;5102971;28;20028;-48
2022/01/14 09:51:55;;;;;;;0.40;0.40;;;19.90;49.50;;;;;;5083123;28;20032;-51
2022/01/14 09:54:21;;;;;;;0.43;0.30;;;19.90;49.60;;;;;;5104237;28;20102;-49
2022/01/14 09:56:48;;;;;;;0.30;0.30;;;19.90;49.60;;;;;;5093168;28;20024;-49
2022/01/14 09:59:16;;;;;;;0.40;0.30;;;19.80;49.60;;;;;;5085304;28;20032;-47
2022/01/14 10:01:43;;;;;;;0.30;0.30;;;19.90;49.60;;;;;;5103990;28;20023;-48
2022/01/14 10:04:18;;;;;;;0.95;0.30;;;19.90;49.70;;;;;;5096372;28;20032;-48
2022/01/14 10:06:46;;;;;;;0.50;0.40;;;20.00;49.60;;;;;;5101140;28;20096;-48
2022/01/14 10:09:23;;;;;;;0.43;0.30;;;19.90;49.50;;;;;;5104102;28;20108;-46
2022/01/14 10:12:13;;;;;;;0.43;0.40;;;19.90;49.50;;;;;;5101148;28;20056;-48
2022/01/14 10:14:51;;;;;;;0.50;0.50;;;19.80;49.50;;;;;;5104293;28;20113;-48
2022/01/14 10:17:17;;;;;;;0.50;0.40;;;19.90;49.60;;;;;;5090521;28;20076;-48
2022/01/14 10:19:44;;;;;;;0.63;0.43;;;19.90;49.70;;;;;;5104210;28;20769;-48
2022/01/14 10:22:24;;;;;;;0.60;0.40;;;20.00;49.60;;;;;;5098179;28;20449;-46
2022/01/14 10:25:05;;;;;;;0.35;0.30;;;19.90;49.50;;;;;;5103536;28;20139;-51
2022/01/14 10:27:41;;;;;;;0.73;0.50;;;19.90;49.50;;;;;;5085580;28;20075;-50
2022/01/14 10:30:20;;;;;;;0.52;0.40;;;19.80;49.50;;;;;;5092431;28;20027;-46
2022/01/14 10:33:05;;;;;;;0.50;0.50;;;19.80;49.60;;;;;;5074172;28;20450;-48
2022/01/14 10:35:42;;;;;;;0.65;0.40;;;19.90;49.60;;;;;;5103630;28;20024;-52
2022/01/14 10:38:11;;;;;;;0.45;0.40;;;19.90;49.70;;;;;;5094314;28;20560;-48
2022/01/14 10:40:41;;;;;;;0.35;0.30;;;20.00;49.60;;;;;;5084752;28;20049;-49
2022/01/14 10:43:09;;;;;;;0.43;0.30;;;19.90;49.60;;;;;;5086172;28;20025;-46
2022/01/14 10:45:35;;;;;;;0.20;0.20;;;19.90;49.50;;;;;;5103375;28;20153;-49
2022/01/14 10:48:06;;;;;;;0.70;0.38;;;19.80;49.50;;;;;;5102093;28;20044;-49
2022/01/14 10:50:59;;;;;;;0.43;0.30;;;19.90;49.70;;;;;;5102983;28;20032;-46
2022/01/14 10:53:34;;;;;;;0.35;0.30;;;19.90;49.70;;;;;;5100720;28;20035;-47
2022/01/14 10:56:09;;;;;;;0.52;0.40;;;20.00;49.60;;;;;;5102775;28;20024;-47
2022/01/14 10:58:37;;;;;;;0.47;0.22;;;19.90;49.50;;;;;;5101269;28;20028;-47
2022/01/14 11:01:15;;;;;;;0.50;0.43;;;19.90;50.10;;;;;;5100570;28;20039;-46
2022/01/14 11:03:45;;;;;;;;;;;19.80;49.50;;;;;;5108147;28;20290;-50
2022/01/14 11:06:33;;;;;;;0.60;0.40;;;19.90;49.60;;;;;;5104827;28;19929;-49
2022/01/14 11:09:03;;;;;;;0.50;0.40;;;19.90;49.70;;;;;;5097976;28;20100;-49
2022/01/14 11:11:34;;;;;;;0.50;0.40;;;20.00;49.70;;;;;;5100687;28;20059;-49
2022/01/14 11:14:01;;;;;;;0.60;0.40;;;20.00;49.60;;;;;;5082278;28;20036;-47
2022/01/14 11:16:27;;;;;;;0.45;0.40;;;19.90;49.60;;;;;;5082640;28;20021;-48
2022/01/14 11:18:56;;;;;;;0.50;0.50;;;19.90;49.60;;;;;;5089703;28;20032;-48
2022/01/14 11:24:09;;;;;;;0.47;0.30;;;19.90;49.60;;;;;;5095095;28;20038;-47
2022/01/14 11:26:36;;;;;;;0.40;0.40;;;19.90;49.70;;;;;;5094339;28;20063;-46
2022/01/14 11:29:05;;;;;;;0.55;0.30;;;20.00;49.60;;;;;;5061129;28;20029;-46
2022/01/14 11:31:35;;;;;;;1.10;0.50;;;19.90;49.50;;;;;;5079417;28;20115;-48
2022/01/14 11:34:02;;;;;;;1.25;0.28;;;19.90;49.50;;;;;;5081518;28;20028;-49
2022/01/14 11:36:56;;;;;;;0.40;0.40;;;19.80;49.50;;;;;;5089633;28;20056;-49
2022/01/14 11:39:24;;;;;;;0.47;0.40;;;19.80;49.60;;;;;;5061815;28;20037;-47
2022/01/14 11:42:02;;;;;;;0.60;0.50;;;19.90;49.60;;;;;;5079763;28;20021;-47
2022/01/14 11:44:44;;;;;;;0.70;0.50;;;20.00;49.70;;;;;;5080399;28;20036;-48
2022/01/14 11:47:39;;;;;;;0.50;0.30;;;19.90;49.50;;;;;;5084671;28;20080;-47
2022/01/14 11:50:28;;;;;;;0.52;0.40;;;19.90;49.50;;;;;;5075360;28;20068;-46
2022/01/14 11:52:56;;;;;;;0.77;0.63;;;19.80;49.50;;;;;;5069789;28;20032;-47
2022/01/14 11:55:22;;;;;;;0.47;0.40;;;19.80;49.60;;;;;;5081156;28;20040;-48
2022/01/14 11:57:52;;;;;;;1.00;0.50;;;19.90;49.60;;;;;;5082001;28;20043;-49
2022/01/14 12:00:27;;;;;;;0.50;0.40;;;19.90;49.70;;;;;;5064720;28;20032;-48
2022/01/14 12:02:54;;;;;;;0.57;0.40;;;19.90;49.50;;;;;;5086976;28;20029;-47
2022/01/14 12:05:30;;;;;;;0.40;0.30;;;19.90;49.60;;;;;;5086710;28;20024;-48
2022/01/14 12:08:18;;;;;;;2.97;0.40;;;19.80;49.50;;;;;;5094195;28;20032;-48
2022/01/14 12:11:12;;;;;;;0.40;0.30;;;19.80;49.60;;;;;;5086307;28;20059;-47
2022/01/14 12:13:53;;;;;;;0.60;0.35;;;19.80;49.60;;;;;;5083155;28;20028;-51
2022/01/14 12:16:35;;;;;;;0.50;0.30;;;19.90;49.70;;;;;;5086140;28;20056;-51
2022/01/14 12:19:02;;;;;;;0.32;0.30;;;19.90;49.60;;;;;;5085887;28;20043;-49
2022/01/14 12:21:50;;;;;;;0.40;0.30;;;19.90;49.60;;;;;;5086771;28;20039;-51
2022/01/14 12:24:19;;;;;;;0.55;0.40;;;19.90;49.60;;;;;;5086122;28;20032;-47
2022/01/14 12:26:58;;;;;;;0.80;0.60;;;19.80;49.60;;;;;;5085527;28;20045;-47
2022/01/14 12:29:37;;;;;;;0.52;0.40;;;19.80;49.60;;;;;;5077704;28;20028;-48
2022/01/14 12:32:04;;;;;;;1.35;0.40;;;19.90;49.70;;;;;;5084387;28;20032;-52
2022/01/14 12:34:56;;;;;;;0.77;0.40;;;20.00;49.70;;;;;;5086061;28;20521;-47
2022/01/14 12:37:36;;;;;;;0.52;0.30;;;19.90;49.60;;;;;;5077924;28;20036;-47
2022/01/14 12:40:09;;;;;;;0.60;0.47;;;19.90;49.60;;;;;;5086866;28;20035;-48
2022/01/14 12:42:35;;;;;;;1.02;0.50;;;19.80;49.60;;;;;;5085303;28;20081;-47
2022/01/14 12:45:03;;;;;;;0.73;0.40;;;19.80;49.70;;;;;;5067418;28;20033;-50
2022/01/14 12:47:35;;;;;;;0.60;0.40;;;19.90;49.70;;;;;;5059348;28;20769;-48
2022/01/14 12:50:07;;;;;;;0.60;0.50;;;19.90;49.70;;;;;;5085666;28;20081;-50
2022/01/14 12:52:40;;;;;;;0.47;0.38;;;19.90;49.60;;;;;;5085153;28;20698;-52
2022/01/14 12:55:08;;;;;;;0.57;0.47;;;19.90;49.60;;;;;;5074364;28;20451;-51
2022/01/14 12:57:34;;;;;;;1.67;0.50;;;19.80;49.60;;;;;;5085251;28;20090;-52
2022/01/14 13:00:00;;;;;;;0.60;0.50;;;19.80;49.70;;;;;;5084430;28;20040;-52
2022/01/14 13:02:31;;;;;;;0.60;0.40;;;19.90;49.70;;;;;;5085058;28;20025;-48
2022/01/14 13:05:06;;;;;;;1.15;0.50;;;19.90;49.70;;;;;;5085015;28;20036;-52
2022/01/14 13:07:32;;;;;;;0.40;0.38;;;20.00;49.60;;;;;;5084813;28;20038;-52
2022/01/14 13:09:58;;;;;;;0.67;0.40;;;19.90;49.60;;;;;;5084998;28;20032;-52
2022/01/14 13:12:30;;;;;;;0.98;0.60;;;19.90;49.60;;;;;;5083492;28;20392;-53
2022/01/14 13:15:02;;;;;;;0.68;0.40;;;19.80;49.50;;;;;;5085191;28;20032;-50
2022/01/14 13:17:34;;;;;;;1.02;0.55;;;19.80;49.60;;;;;;5086602;28;20064;-50
2022/01/14 13:20:02;;;;;;;0.57;0.50;;;19.90;49.70;;;;;;5083900;28;20025;-50
2022/01/14 13:22:30;;;;;;;0.85;0.40;;;19.90;49.60;;;;;;5084533;28;20025;-50
2022/01/14 13:24:58;;;;;;;0.70;0.50;;;19.90;49.40;;;;;;5084711;28;20017;-51